sensor_id;sensor_type;location;lat;lon;timestamp;P1;durP1;ratioP1;P2;durP2;ratioP2
2257;SDS011;1136;51.574;7.706;2023-11-21T00:02:45;13.80;;;11.13;;
2257;SDS011;1136;51.574;7.706;2023-11-21T00:05:50;11.53;;;10.20;;
2257;SDS011;1136;51.574;7.706;2023-11-21T00:08:54;15.60;;;11.20;;
2257;SDS011;1136;51.574;7.706;2023-11-21T00:11:58;13.07;;;11.63;;
2257;SDS011;1136;51.574;7.706;2023-11-21T00:15:06;21.77;;;12.27;;
2257;SDS011;1136;51.574;7.706;2023-11-21T00:18:17;16.93;;;10.67;;
2257;SDS011;1136;51.574;7.706;2023-11-21T00:21:21;16.70;;;11.30;;
2257;SDS011;1136;51.574;7.706;2023-11-21T00:24:25;19.20;;;11.37;;
2257;SDS011;1136;51.574;7.706;2023-11-21T00:27:30;13.70;;;11.77;;
2257;SDS011;1136;51.574;7.706;2023-11-21T00:30:34;12.43;;;11.13;;
2257;SDS011;1136;51.574;7.706;2023-11-21T00:33:38;18.20;;;11.30;;
2257;SDS011;1136;51.574;7.706;2023-11-21T00:36:42;20.40;;;12.17;;
2257;SDS011;1136;51.574;7.706;2023-11-21T00:39:46;15.27;;;11.50;;
2257;SDS011;1136;51.574;7.706;2023-11-21T00:42:50;15.57;;;11.80;;
2257;SDS011;1136;51.574;7.706;2023-11-21T00:45:54;14.70;;;12.10;;
2257;SDS011;1136;51.574;7.706;2023-11-21T00:48:58;20.13;;;12.80;;
2257;SDS011;1136;51.574;7.706;2023-11-21T00:52:02;16.17;;;11.73;;
2257;SDS011;1136;51.574;7.706;2023-11-21T00:55:06;16.70;;;12.10;;
2257;SDS011;1136;51.574;7.706;2023-11-21T00:58:11;18.70;;;12.37;;
2257;SDS011;1136;51.574;7.706;2023-11-21T01:01:16;18.40;;;11.97;;
2257;SDS011;1136;51.574;7.706;2023-11-21T01:04:20;16.97;;;12.17;;
2257;SDS011;1136;51.574;7.706;2023-11-21T01:07:24;18.17;;;12.57;;
2257;SDS011;1136;51.574;7.706;2023-11-21T01:10:28;20.63;;;12.83;;
2257;SDS011;1136;51.574;7.706;2023-11-21T01:13:32;27.67;;;14.30;;
2257;SDS011;1136;51.574;7.706;2023-11-21T01:16:37;35.07;;;13.63;;
2257;SDS011;1136;51.574;7.706;2023-11-21T01:19:41;19.30;;;13.20;;
2257;SDS011;1136;51.574;7.706;2023-11-21T01:22:45;16.67;;;11.27;;
2257;SDS011;1136;51.574;7.706;2023-11-21T01:25:49;17.53;;;11.67;;
2257;SDS011;1136;51.574;7.706;2023-11-21T01:28:55;14.97;;;12.33;;
2257;SDS011;1136;51.574;7.706;2023-11-21T01:31:59;15.50;;;11.40;;
2257;SDS011;1136;51.574;7.706;2023-11-21T01:35:03;14.97;;;11.63;;
2257;SDS011;1136;51.574;7.706;2023-11-21T01:38:09;17.77;;;12.70;;
2257;SDS011;1136;51.574;7.706;2023-11-21T01:41:13;19.57;;;11.50;;
2257;SDS011;1136;51.574;7.706;2023-11-21T01:44:18;21.03;;;11.90;;
2257;SDS011;1136;51.574;7.706;2023-11-21T01:47:23;21.17;;;11.50;;
2257;SDS011;1136;51.574;7.706;2023-11-21T01:50:27;23.50;;;13.23;;
2257;SDS011;1136;51.574;7.706;2023-11-21T01:53:32;14.03;;;11.87;;
2257;SDS011;1136;51.574;7.706;2023-11-21T01:56:36;17.73;;;11.70;;
2257;SDS011;1136;51.574;7.706;2023-11-21T01:59:41;20.70;;;12.63;;
2257;SDS011;1136;51.574;7.706;2023-11-21T02:02:46;21.77;;;13.43;;
2257;SDS011;1136;51.574;7.706;2023-11-21T02:05:51;17.23;;;11.70;;
2257;SDS011;1136;51.574;7.706;2023-11-21T02:08:57;18.93;;;12.07;;
2257;SDS011;1136;51.574;7.706;2023-11-21T02:12:00;18.70;;;11.93;;
2257;SDS011;1136;51.574;7.706;2023-11-21T02:15:05;14.53;;;11.67;;
2257;SDS011;1136;51.574;7.706;2023-11-21T02:18:13;13.30;;;11.10;;
2257;SDS011;1136;51.574;7.706;2023-11-21T02:21:19;18.50;;;11.50;;
2257;SDS011;1136;51.574;7.706;2023-11-21T02:24:23;21.10;;;12.13;;
2257;SDS011;1136;51.574;7.706;2023-11-21T02:27:27;15.37;;;11.13;;
2257;SDS011;1136;51.574;7.706;2023-11-21T02:30:31;14.33;;;12.70;;
2257;SDS011;1136;51.574;7.706;2023-11-21T02:33:36;17.20;;;11.70;;
2257;SDS011;1136;51.574;7.706;2023-11-21T02:36:40;15.53;;;10.47;;
2257;SDS011;1136;51.574;7.706;2023-11-21T02:39:44;13.30;;;10.90;;
2257;SDS011;1136;51.574;7.706;2023-11-21T02:42:48;20.53;;;11.80;;
2257;SDS011;1136;51.574;7.706;2023-11-21T02:45:54;13.73;;;11.93;;
2257;SDS011;1136;51.574;7.706;2023-11-21T02:48:59;14.10;;;11.30;;
2257;SDS011;1136;51.574;7.706;2023-11-21T02:52:06;19.20;;;11.27;;
2257;SDS011;1136;51.574;7.706;2023-11-21T02:55:10;19.60;;;11.57;;
2257;SDS011;1136;51.574;7.706;2023-11-21T02:58:15;16.90;;;11.20;;
2257;SDS011;1136;51.574;7.706;2023-11-21T03:01:19;18.90;;;11.07;;
2257;SDS011;1136;51.574;7.706;2023-11-21T03:04:23;19.50;;;10.27;;
2257;SDS011;1136;51.574;7.706;2023-11-21T03:07:27;12.03;;;10.27;;
2257;SDS011;1136;51.574;7.706;2023-11-21T03:10:31;14.37;;;10.60;;
2257;SDS011;1136;51.574;7.706;2023-11-21T03:13:36;13.50;;;10.00;;
2257;SDS011;1136;51.574;7.706;2023-11-21T03:16:40;14.53;;;11.27;;
2257;SDS011;1136;51.574;7.706;2023-11-21T03:19:44;14.67;;;10.50;;
2257;SDS011;1136;51.574;7.706;2023-11-21T03:22:49;21.20;;;11.63;;
2257;SDS011;1136;51.574;7.706;2023-11-21T03:25:53;15.63;;;10.87;;
2257;SDS011;1136;51.574;7.706;2023-11-21T03:28:57;23.63;;;11.47;;
2257;SDS011;1136;51.574;7.706;2023-11-21T03:32:02;14.67;;;11.27;;
2257;SDS011;1136;51.574;7.706;2023-11-21T03:35:06;17.03;;;12.00;;
2257;SDS011;1136;51.574;7.706;2023-11-21T03:38:10;15.03;;;11.93;;
2257;SDS011;1136;51.574;7.706;2023-11-21T03:41:15;16.53;;;10.70;;
2257;SDS011;1136;51.574;7.706;2023-11-21T03:44:19;21.07;;;10.97;;
2257;SDS011;1136;51.574;7.706;2023-11-21T03:47:23;14.10;;;11.57;;
2257;SDS011;1136;51.574;7.706;2023-11-21T03:50:28;21.80;;;12.93;;
2257;SDS011;1136;51.574;7.706;2023-11-21T03:53:33;17.33;;;12.57;;
2257;SDS011;1136;51.574;7.706;2023-11-21T03:56:37;13.57;;;10.07;;
2257;SDS011;1136;51.574;7.706;2023-11-21T03:59:42;17.97;;;12.80;;
2257;SDS011;1136;51.574;7.706;2023-11-21T04:02:46;15.43;;;11.30;;
2257;SDS011;1136;51.574;7.706;2023-11-21T04:05:51;19.03;;;12.63;;
2257;SDS011;1136;51.574;7.706;2023-11-21T04:08:55;20.53;;;11.50;;
2257;SDS011;1136;51.574;7.706;2023-11-21T04:12:00;17.90;;;12.97;;
2257;SDS011;1136;51.574;7.706;2023-11-21T04:15:04;17.10;;;11.67;;
2257;SDS011;1136;51.574;7.706;2023-11-21T04:18:09;22.40;;;12.77;;
2257;SDS011;1136;51.574;7.706;2023-11-21T04:21:15;21.13;;;11.93;;
2257;SDS011;1136;51.574;7.706;2023-11-21T04:24:19;17.70;;;11.50;;
2257;SDS011;1136;51.574;7.706;2023-11-21T04:27:23;27.60;;;12.90;;
2257;SDS011;1136;51.574;7.706;2023-11-21T04:30:27;14.27;;;11.77;;
2257;SDS011;1136;51.574;7.706;2023-11-21T04:33:31;13.37;;;10.70;;
2257;SDS011;1136;51.574;7.706;2023-11-21T04:36:35;20.13;;;13.60;;
2257;SDS011;1136;51.574;7.706;2023-11-21T04:39:39;17.60;;;11.20;;
2257;SDS011;1136;51.574;7.706;2023-11-21T04:42:43;21.97;;;12.40;;
2257;SDS011;1136;51.574;7.706;2023-11-21T04:45:47;17.13;;;13.33;;
2257;SDS011;1136;51.574;7.706;2023-11-21T04:48:51;16.00;;;11.80;;
2257;SDS011;1136;51.574;7.706;2023-11-21T04:51:55;19.10;;;12.43;;
2257;SDS011;1136;51.574;7.706;2023-11-21T04:55:00;21.30;;;13.27;;
2257;SDS011;1136;51.574;7.706;2023-11-21T04:58:06;18.37;;;12.30;;
2257;SDS011;1136;51.574;7.706;2023-11-21T05:01:12;15.83;;;11.90;;
2257;SDS011;1136;51.574;7.706;2023-11-21T05:04:16;13.83;;;10.70;;
2257;SDS011;1136;51.574;7.706;2023-11-21T05:07:20;15.37;;;11.13;;
2257;SDS011;1136;51.574;7.706;2023-11-21T05:10:25;22.80;;;12.03;;
2257;SDS011;1136;51.574;7.706;2023-11-21T05:13:29;17.93;;;12.37;;
2257;SDS011;1136;51.574;7.706;2023-11-21T05:16:33;23.27;;;11.97;;
2257;SDS011;1136;51.574;7.706;2023-11-21T05:19:38;26.23;;;12.30;;
2257;SDS011;1136;51.574;7.706;2023-11-21T05:22:44;22.17;;;12.63;;
2257;SDS011;1136;51.574;7.706;2023-11-21T05:25:48;18.07;;;11.20;;
2257;SDS011;1136;51.574;7.706;2023-11-21T05:28:52;21.40;;;12.60;;
2257;SDS011;1136;51.574;7.706;2023-11-21T05:31:57;13.83;;;12.33;;
2257;SDS011;1136;51.574;7.706;2023-11-21T05:35:01;19.70;;;11.60;;
2257;SDS011;1136;51.574;7.706;2023-11-21T05:38:06;19.37;;;13.10;;
2257;SDS011;1136;51.574;7.706;2023-11-21T05:41:11;18.93;;;13.43;;
2257;SDS011;1136;51.574;7.706;2023-11-21T05:44:17;14.07;;;12.27;;
2257;SDS011;1136;51.574;7.706;2023-11-21T05:47:21;21.37;;;12.10;;
2257;SDS011;1136;51.574;7.706;2023-11-21T05:50:26;17.10;;;13.20;;
2257;SDS011;1136;51.574;7.706;2023-11-21T05:53:30;26.00;;;14.00;;
2257;SDS011;1136;51.574;7.706;2023-11-21T05:56:34;21.27;;;14.40;;
2257;SDS011;1136;51.574;7.706;2023-11-21T05:59:39;17.30;;;14.10;;
2257;SDS011;1136;51.574;7.706;2023-11-21T06:02:43;17.27;;;13.10;;
2257;SDS011;1136;51.574;7.706;2023-11-21T06:05:47;17.30;;;13.40;;
2257;SDS011;1136;51.574;7.706;2023-11-21T06:08:52;21.83;;;14.77;;
2257;SDS011;1136;51.574;7.706;2023-11-21T06:11:57;23.60;;;15.40;;
2257;SDS011;1136;51.574;7.706;2023-11-21T06:15:04;17.67;;;14.57;;
2257;SDS011;1136;51.574;7.706;2023-11-21T06:18:09;27.57;;;14.60;;
2257;SDS011;1136;51.574;7.706;2023-11-21T06:21:18;24.93;;;15.70;;
2257;SDS011;1136;51.574;7.706;2023-11-21T06:24:22;25.57;;;14.80;;
2257;SDS011;1136;51.574;7.706;2023-11-21T06:27:26;22.00;;;15.40;;
2257;SDS011;1136;51.574;7.706;2023-11-21T06:30:30;22.37;;;15.27;;
2257;SDS011;1136;51.574;7.706;2023-11-21T06:33:35;21.97;;;15.20;;
2257;SDS011;1136;51.574;7.706;2023-11-21T06:36:39;25.97;;;15.77;;
2257;SDS011;1136;51.574;7.706;2023-11-21T06:39:43;21.63;;;14.33;;
2257;SDS011;1136;51.574;7.706;2023-11-21T06:42:47;23.13;;;15.37;;
2257;SDS011;1136;51.574;7.706;2023-11-21T06:45:52;28.27;;;14.37;;
2257;SDS011;1136;51.574;7.706;2023-11-21T06:48:56;24.00;;;14.27;;
2257;SDS011;1136;51.574;7.706;2023-11-21T06:52:04;22.77;;;14.53;;
2257;SDS011;1136;51.574;7.706;2023-11-21T06:55:08;32.90;;;16.90;;
2257;SDS011;1136;51.574;7.706;2023-11-21T06:58:13;27.20;;;17.60;;
2257;SDS011;1136;51.574;7.706;2023-11-21T07:01:18;43.77;;;23.13;;
2257;SDS011;1136;51.574;7.706;2023-11-21T07:04:22;48.10;;;21.27;;
2257;SDS011;1136;51.574;7.706;2023-11-21T07:07:27;57.73;;;25.63;;
2257;SDS011;1136;51.574;7.706;2023-11-21T07:10:31;67.57;;;29.07;;
2257;SDS011;1136;51.574;7.706;2023-11-21T07:13:35;87.33;;;34.77;;
2257;SDS011;1136;51.574;7.706;2023-11-21T07:16:40;88.70;;;31.67;;
2257;SDS011;1136;51.574;7.706;2023-11-21T07:19:44;77.73;;;30.23;;
2257;SDS011;1136;51.574;7.706;2023-11-21T07:22:49;81.40;;;35.00;;
2257;SDS011;1136;51.574;7.706;2023-11-21T07:25:53;75.83;;;31.07;;
2257;SDS011;1136;51.574;7.706;2023-11-21T07:28:57;55.97;;;27.10;;
2257;SDS011;1136;51.574;7.706;2023-11-21T07:32:01;59.53;;;28.33;;
2257;SDS011;1136;51.574;7.706;2023-11-21T07:35:06;76.70;;;36.50;;
2257;SDS011;1136;51.574;7.706;2023-11-21T07:38:12;65.50;;;27.03;;
2257;SDS011;1136;51.574;7.706;2023-11-21T07:41:17;59.07;;;26.23;;
2257;SDS011;1136;51.574;7.706;2023-11-21T07:44:33;44.80;;;24.67;;
2257;SDS011;1136;51.574;7.706;2023-11-21T07:47:39;34.30;;;20.37;;
2257;SDS011;1136;51.574;7.706;2023-11-21T07:50:44;33.83;;;20.77;;
2257;SDS011;1136;51.574;7.706;2023-11-21T07:53:48;44.13;;;22.30;;
2257;SDS011;1136;51.574;7.706;2023-11-21T07:56:53;35.47;;;19.57;;
2257;SDS011;1136;51.574;7.706;2023-11-21T07:59:57;30.73;;;19.70;;
2257;SDS011;1136;51.574;7.706;2023-11-21T08:03:01;27.17;;;17.90;;
2257;SDS011;1136;51.574;7.706;2023-11-21T08:06:05;27.17;;;15.50;;
2257;SDS011;1136;51.574;7.706;2023-11-21T08:09:09;26.47;;;16.13;;
2257;SDS011;1136;51.574;7.706;2023-11-21T08:12:16;19.73;;;14.90;;
2257;SDS011;1136;51.574;7.706;2023-11-21T08:15:21;24.63;;;16.47;;
2257;SDS011;1136;51.574;7.706;2023-11-21T08:18:25;23.63;;;15.30;;
2257;SDS011;1136;51.574;7.706;2023-11-21T08:21:29;23.50;;;17.23;;
2257;SDS011;1136;51.574;7.706;2023-11-21T08:24:34;30.80;;;17.23;;
2257;SDS011;1136;51.574;7.706;2023-11-21T08:27:38;27.93;;;18.20;;
2257;SDS011;1136;51.574;7.706;2023-11-21T08:30:42;29.70;;;18.30;;
2257;SDS011;1136;51.574;7.706;2023-11-21T08:33:47;27.20;;;18.33;;
2257;SDS011;1136;51.574;7.706;2023-11-21T08:36:51;32.40;;;19.07;;
2257;SDS011;1136;51.574;7.706;2023-11-21T08:39:57;30.50;;;18.50;;
2257;SDS011;1136;51.574;7.706;2023-11-21T08:43:03;30.70;;;18.20;;
2257;SDS011;1136;51.574;7.706;2023-11-21T08:46:12;25.07;;;18.20;;
2257;SDS011;1136;51.574;7.706;2023-11-21T08:49:16;27.73;;;16.70;;
2257;SDS011;1136;51.574;7.706;2023-11-21T08:52:21;25.20;;;16.40;;
2257;SDS011;1136;51.574;7.706;2023-11-21T08:55:28;34.67;;;19.30;;
2257;SDS011;1136;51.574;7.706;2023-11-21T08:58:32;21.90;;;16.37;;
2257;SDS011;1136;51.574;7.706;2023-11-21T09:01:36;31.40;;;19.17;;
2257;SDS011;1136;51.574;7.706;2023-11-21T09:04:40;45.60;;;20.87;;
2257;SDS011;1136;51.574;7.706;2023-11-21T09:07:46;31.70;;;19.87;;
2257;SDS011;1136;51.574;7.706;2023-11-21T09:10:53;39.83;;;23.47;;
2257;SDS011;1136;51.574;7.706;2023-11-21T09:13:56;33.70;;;20.67;;
2257;SDS011;1136;51.574;7.706;2023-11-21T09:17:02;28.87;;;20.83;;
2257;SDS011;1136;51.574;7.706;2023-11-21T09:20:08;33.17;;;20.37;;
2257;SDS011;1136;51.574;7.706;2023-11-21T09:23:14;27.63;;;19.90;;
2257;SDS011;1136;51.574;7.706;2023-11-21T09:26:19;37.37;;;21.27;;
2257;SDS011;1136;51.574;7.706;2023-11-21T09:29:24;39.87;;;20.80;;
2257;SDS011;1136;51.574;7.706;2023-11-21T09:32:28;30.63;;;19.73;;
2257;SDS011;1136;51.574;7.706;2023-11-21T09:35:33;31.03;;;20.53;;
2257;SDS011;1136;51.574;7.706;2023-11-21T09:38:37;38.80;;;22.87;;
2257;SDS011;1136;51.574;7.706;2023-11-21T09:41:52;34.40;;;21.80;;
2257;SDS011;1136;51.574;7.706;2023-11-21T09:45:09;51.53;;;22.20;;
2257;SDS011;1136;51.574;7.706;2023-11-21T09:48:16;44.43;;;26.33;;
2257;SDS011;1136;51.574;7.706;2023-11-21T09:51:20;50.50;;;24.90;;
2257;SDS011;1136;51.574;7.706;2023-11-21T09:54:26;46.30;;;24.13;;
2257;SDS011;1136;51.574;7.706;2023-11-21T09:57:32;66.03;;;27.63;;
2257;SDS011;1136;51.574;7.706;2023-11-21T10:00:55;62.37;;;30.07;;
2257;SDS011;1136;51.574;7.706;2023-11-21T10:04:01;62.37;;;31.77;;
2257;SDS011;1136;51.574;7.706;2023-11-21T10:07:06;85.10;;;37.60;;
2257;SDS011;1136;51.574;7.706;2023-11-21T10:10:13;69.60;;;32.20;;
2257;SDS011;1136;51.574;7.706;2023-11-21T10:13:17;69.47;;;34.00;;
2257;SDS011;1136;51.574;7.706;2023-11-21T10:16:23;71.73;;;34.13;;
2257;SDS011;1136;51.574;7.706;2023-11-21T10:19:29;80.33;;;35.17;;
2257;SDS011;1136;51.574;7.706;2023-11-21T10:22:34;71.67;;;33.47;;
2257;SDS011;1136;51.574;7.706;2023-11-21T10:25:39;59.83;;;30.60;;
2257;SDS011;1136;51.574;7.706;2023-11-21T10:28:59;56.33;;;31.87;;
2257;SDS011;1136;51.574;7.706;2023-11-21T10:32:04;61.17;;;33.97;;
2257;SDS011;1136;51.574;7.706;2023-11-21T10:35:09;68.23;;;34.80;;
2257;SDS011;1136;51.574;7.706;2023-11-21T10:38:14;70.33;;;33.73;;
2257;SDS011;1136;51.574;7.706;2023-11-21T10:41:19;58.40;;;35.47;;
2257;SDS011;1136;51.574;7.706;2023-11-21T10:44:26;60.40;;;34.50;;
2257;SDS011;1136;51.574;7.706;2023-11-21T10:47:31;70.53;;;33.97;;
2257;SDS011;1136;51.574;7.706;2023-11-21T10:50:36;54.97;;;32.83;;
2257;SDS011;1136;51.574;7.706;2023-11-21T10:53:41;60.90;;;33.93;;
2257;SDS011;1136;51.574;7.706;2023-11-21T10:57:00;56.83;;;31.63;;
2257;SDS011;1136;51.574;7.706;2023-11-21T11:00:06;66.90;;;33.80;;
2257;SDS011;1136;51.574;7.706;2023-11-21T11:03:10;57.40;;;28.23;;
2257;SDS011;1136;51.574;7.706;2023-11-21T11:06:20;50.30;;;29.27;;
2257;SDS011;1136;51.574;7.706;2023-11-21T11:09:25;61.73;;;37.57;;
2257;SDS011;1136;51.574;7.706;2023-11-21T11:12:30;55.93;;;30.57;;
2257;SDS011;1136;51.574;7.706;2023-11-21T11:15:34;55.90;;;28.70;;
2257;SDS011;1136;51.574;7.706;2023-11-21T11:18:39;48.23;;;28.20;;
2257;SDS011;1136;51.574;7.706;2023-11-21T11:28:47;32.13;;;18.33;;
2257;SDS011;1136;51.574;7.706;2023-11-21T11:35:36;28.33;;;14.70;;
2257;SDS011;1136;51.574;7.706;2023-11-21T11:38:46;26.87;;;15.70;;
2257;SDS011;1136;51.574;7.706;2023-11-21T11:41:50;31.57;;;18.10;;
2257;SDS011;1136;51.574;7.706;2023-11-21T11:44:57;31.93;;;18.37;;
2257;SDS011;1136;51.574;7.706;2023-11-21T11:48:01;21.30;;;15.33;;
2257;SDS011;1136;51.574;7.706;2023-11-21T11:51:11;18.23;;;12.70;;
2257;SDS011;1136;51.574;7.706;2023-11-21T11:54:31;19.37;;;11.50;;
2257;SDS011;1136;51.574;7.706;2023-11-21T11:57:40;17.10;;;11.03;;
2257;SDS011;1136;51.574;7.706;2023-11-21T12:00:45;21.20;;;12.83;;
2257;SDS011;1136;51.574;7.706;2023-11-21T12:07:18;16.27;;;12.00;;
2257;SDS011;1136;51.574;7.706;2023-11-21T12:10:25;18.73;;;11.50;;
2257;SDS011;1136;51.574;7.706;2023-11-21T12:13:29;18.73;;;12.13;;
2257;SDS011;1136;51.574;7.706;2023-11-21T12:16:34;19.33;;;12.67;;
2257;SDS011;1136;51.574;7.706;2023-11-21T12:19:38;16.67;;;11.60;;
2257;SDS011;1136;51.574;7.706;2023-11-21T12:22:44;17.13;;;12.93;;
2257;SDS011;1136;51.574;7.706;2023-11-21T12:25:51;18.33;;;13.50;;
2257;SDS011;1136;51.574;7.706;2023-11-21T12:28:55;17.20;;;11.40;;
2257;SDS011;1136;51.574;7.706;2023-11-21T12:31:59;18.17;;;12.83;;
2257;SDS011;1136;51.574;7.706;2023-11-21T12:35:04;16.30;;;12.93;;
2257;SDS011;1136;51.574;7.706;2023-11-21T12:38:10;17.03;;;12.23;;
2257;SDS011;1136;51.574;7.706;2023-11-21T12:41:15;16.67;;;12.37;;
2257;SDS011;1136;51.574;7.706;2023-11-21T12:44:20;19.90;;;15.50;;
2257;SDS011;1136;51.574;7.706;2023-11-21T12:47:27;17.20;;;12.40;;
2257;SDS011;1136;51.574;7.706;2023-11-21T12:50:31;13.30;;;10.60;;
2257;SDS011;1136;51.574;7.706;2023-11-21T12:53:37;17.30;;;12.73;;
2257;SDS011;1136;51.574;7.706;2023-11-21T12:56:44;17.67;;;13.57;;
2257;SDS011;1136;51.574;7.706;2023-11-21T12:59:51;23.60;;;15.63;;
2257;SDS011;1136;51.574;7.706;2023-11-21T13:02:58;23.03;;;14.63;;
2257;SDS011;1136;51.574;7.706;2023-11-21T13:06:02;22.87;;;14.30;;
2257;SDS011;1136;51.574;7.706;2023-11-21T13:09:09;19.50;;;13.53;;
2257;SDS011;1136;51.574;7.706;2023-11-21T13:12:23;16.07;;;11.80;;
2257;SDS011;1136;51.574;7.706;2023-11-21T13:15:28;16.77;;;11.90;;
2257;SDS011;1136;51.574;7.706;2023-11-21T13:18:35;13.70;;;9.97;;
2257;SDS011;1136;51.574;7.706;2023-11-21T13:21:40;18.30;;;12.20;;
2257;SDS011;1136;51.574;7.706;2023-11-21T13:24:44;15.80;;;12.77;;
2257;SDS011;1136;51.574;7.706;2023-11-21T13:27:48;15.73;;;12.43;;
2257;SDS011;1136;51.574;7.706;2023-11-21T13:30:55;15.90;;;11.27;;
2257;SDS011;1136;51.574;7.706;2023-11-21T13:33:59;13.80;;;11.17;;
2257;SDS011;1136;51.574;7.706;2023-11-21T13:37:09;14.60;;;10.10;;
2257;SDS011;1136;51.574;7.706;2023-11-21T13:40:13;15.13;;;12.57;;
2257;SDS011;1136;51.574;7.706;2023-11-21T13:43:22;12.23;;;10.20;;
2257;SDS011;1136;51.574;7.706;2023-11-21T13:46:28;13.03;;;11.57;;
2257;SDS011;1136;51.574;7.706;2023-11-21T13:49:33;13.20;;;9.10;;
2257;SDS011;1136;51.574;7.706;2023-11-21T13:52:44;14.30;;;9.40;;
2257;SDS011;1136;51.574;7.706;2023-11-21T13:55:49;19.47;;;12.03;;
2257;SDS011;1136;51.574;7.706;2023-11-21T13:58:54;13.00;;;10.47;;
2257;SDS011;1136;51.574;7.706;2023-11-21T14:01:59;11.90;;;10.00;;
2257;SDS011;1136;51.574;7.706;2023-11-21T14:05:15;10.60;;;8.60;;
2257;SDS011;1136;51.574;7.706;2023-11-21T14:08:25;8.60;;;7.13;;
2257;SDS011;1136;51.574;7.706;2023-11-21T14:11:32;8.37;;;7.57;;
2257;SDS011;1136;51.574;7.706;2023-11-21T14:14:46;9.60;;;7.20;;
2257;SDS011;1136;51.574;7.706;2023-11-21T14:17:52;7.47;;;6.77;;
2257;SDS011;1136;51.574;7.706;2023-11-21T14:20:56;13.13;;;7.70;;
2257;SDS011;1136;51.574;7.706;2023-11-21T14:24:00;6.97;;;6.27;;
2257;SDS011;1136;51.574;7.706;2023-11-21T14:27:06;6.57;;;6.03;;
2257;SDS011;1136;51.574;7.706;2023-11-21T14:30:10;8.27;;;7.00;;
2257;SDS011;1136;51.574;7.706;2023-11-21T14:33:17;8.20;;;7.40;;
2257;SDS011;1136;51.574;7.706;2023-11-21T14:36:21;9.43;;;8.53;;
2257;SDS011;1136;51.574;7.706;2023-11-21T14:39:25;13.87;;;12.17;;
2257;SDS011;1136;51.574;7.706;2023-11-21T14:42:32;16.73;;;13.03;;
2257;SDS011;1136;51.574;7.706;2023-11-21T14:45:37;16.80;;;14.73;;
2257;SDS011;1136;51.574;7.706;2023-11-21T14:48:42;13.90;;;12.10;;
2257;SDS011;1136;51.574;7.706;2023-11-21T14:51:46;15.40;;;12.73;;
2257;SDS011;1136;51.574;7.706;2023-11-21T14:55:04;13.00;;;11.60;;
2257;SDS011;1136;51.574;7.706;2023-11-21T14:58:28;15.50;;;12.93;;
2257;SDS011;1136;51.574;7.706;2023-11-21T15:01:32;15.77;;;13.23;;
2257;SDS011;1136;51.574;7.706;2023-11-21T15:04:56;13.83;;;12.33;;
2257;SDS011;1136;51.574;7.706;2023-11-21T15:08:06;15.93;;;14.07;;
2257;SDS011;1136;51.574;7.706;2023-11-21T15:11:30;19.80;;;16.50;;
2257;SDS011;1136;51.574;7.706;2023-11-21T15:14:35;20.30;;;14.70;;
2257;SDS011;1136;51.574;7.706;2023-11-21T15:17:40;20.13;;;14.90;;
2257;SDS011;1136;51.574;7.706;2023-11-21T15:20:46;22.57;;;19.50;;
2257;SDS011;1136;51.574;7.706;2023-11-21T15:23:50;23.33;;;19.40;;
2257;SDS011;1136;51.574;7.706;2023-11-21T15:26:55;15.70;;;14.00;;
2257;SDS011;1136;51.574;7.706;2023-11-21T15:29:59;16.63;;;13.60;;
2257;SDS011;1136;51.574;7.706;2023-11-21T15:33:04;18.43;;;13.20;;
2257;SDS011;1136;51.574;7.706;2023-11-21T15:36:08;15.13;;;13.27;;
2257;SDS011;1136;51.574;7.706;2023-11-21T15:39:14;14.93;;;12.93;;
2257;SDS011;1136;51.574;7.706;2023-11-21T15:42:19;12.70;;;11.10;;
2257;SDS011;1136;51.574;7.706;2023-11-21T15:45:24;14.57;;;11.10;;
2257;SDS011;1136;51.574;7.706;2023-11-21T15:48:30;13.83;;;9.43;;
2257;SDS011;1136;51.574;7.706;2023-11-21T15:51:34;11.57;;;10.47;;
2257;SDS011;1136;51.574;7.706;2023-11-21T15:54:40;10.67;;;9.57;;
2257;SDS011;1136;51.574;7.706;2023-11-21T15:57:44;10.73;;;9.50;;
2257;SDS011;1136;51.574;7.706;2023-11-21T16:00:48;10.37;;;9.27;;
2257;SDS011;1136;51.574;7.706;2023-11-21T16:03:53;9.43;;;8.50;;
2257;SDS011;1136;51.574;7.706;2023-11-21T16:06:58;10.70;;;8.87;;
2257;SDS011;1136;51.574;7.706;2023-11-21T16:10:06;8.80;;;7.90;;
2257;SDS011;1136;51.574;7.706;2023-11-21T16:13:18;11.03;;;9.33;;
2257;SDS011;1136;51.574;7.706;2023-11-21T16:16:23;14.93;;;9.63;;
2257;SDS011;1136;51.574;7.706;2023-11-21T16:19:27;14.03;;;10.53;;
2257;SDS011;1136;51.574;7.706;2023-11-21T16:22:31;10.63;;;9.63;;
2257;SDS011;1136;51.574;7.706;2023-11-21T16:25:39;10.77;;;9.70;;
2257;SDS011;1136;51.574;7.706;2023-11-21T16:28:43;10.87;;;9.73;;
2257;SDS011;1136;51.574;7.706;2023-11-21T16:31:47;12.83;;;10.20;;
2257;SDS011;1136;51.574;7.706;2023-11-21T16:34:54;16.17;;;10.23;;
2257;SDS011;1136;51.574;7.706;2023-11-21T16:38:00;11.93;;;10.60;;
2257;SDS011;1136;51.574;7.706;2023-11-21T16:41:05;15.07;;;12.40;;
2257;SDS011;1136;51.574;7.706;2023-11-21T16:44:16;16.37;;;12.07;;
2257;SDS011;1136;51.574;7.706;2023-11-21T16:47:22;13.90;;;11.90;;
2257;SDS011;1136;51.574;7.706;2023-11-21T16:50:27;14.80;;;10.97;;
2257;SDS011;1136;51.574;7.706;2023-11-21T16:53:31;21.83;;;16.43;;
2257;SDS011;1136;51.574;7.706;2023-11-21T16:56:35;15.20;;;10.53;;
2257;SDS011;1136;51.574;7.706;2023-11-21T16:59:42;11.83;;;9.93;;
2257;SDS011;1136;51.574;7.706;2023-11-21T17:02:47;12.10;;;10.80;;
2257;SDS011;1136;51.574;7.706;2023-11-21T17:05:51;14.20;;;12.37;;
2257;SDS011;1136;51.574;7.706;2023-11-21T17:08:56;11.73;;;10.53;;
2257;SDS011;1136;51.574;7.706;2023-11-21T17:12:01;12.03;;;10.80;;
2257;SDS011;1136;51.574;7.706;2023-11-21T17:15:11;13.33;;;10.83;;
2257;SDS011;1136;51.574;7.706;2023-11-21T17:18:16;14.07;;;11.10;;
2257;SDS011;1136;51.574;7.706;2023-11-21T17:21:20;14.63;;;10.47;;
2257;SDS011;1136;51.574;7.706;2023-11-21T17:24:32;12.10;;;10.80;;
2257;SDS011;1136;51.574;7.706;2023-11-21T17:27:38;13.13;;;11.70;;
2257;SDS011;1136;51.574;7.706;2023-11-21T17:30:42;12.53;;;11.03;;
2257;SDS011;1136;51.574;7.706;2023-11-21T17:33:49;11.10;;;9.87;;
2257;SDS011;1136;51.574;7.706;2023-11-21T17:36:53;12.07;;;10.70;;
2257;SDS011;1136;51.574;7.706;2023-11-21T17:40:00;10.33;;;9.33;;
2257;SDS011;1136;51.574;7.706;2023-11-21T17:43:04;10.93;;;9.83;;
2257;SDS011;1136;51.574;7.706;2023-11-21T17:46:09;10.70;;;9.60;;
2257;SDS011;1136;51.574;7.706;2023-11-21T17:49:15;10.03;;;9.00;;
2257;SDS011;1136;51.574;7.706;2023-11-21T17:52:19;10.33;;;9.30;;
2257;SDS011;1136;51.574;7.706;2023-11-21T17:55:24;10.67;;;8.97;;
2257;SDS011;1136;51.574;7.706;2023-11-21T17:58:31;11.13;;;10.00;;
2257;SDS011;1136;51.574;7.706;2023-11-21T18:01:36;10.10;;;9.07;;
2257;SDS011;1136;51.574;7.706;2023-11-21T18:04:41;11.93;;;9.10;;
2257;SDS011;1136;51.574;7.706;2023-11-21T18:07:46;14.67;;;10.77;;
2257;SDS011;1136;51.574;7.706;2023-11-21T18:10:51;11.50;;;10.40;;
2257;SDS011;1136;51.574;7.706;2023-11-21T18:13:56;16.43;;;12.37;;
2257;SDS011;1136;51.574;7.706;2023-11-21T18:17:01;12.00;;;10.10;;
2257;SDS011;1136;51.574;7.706;2023-11-21T18:20:08;15.00;;;11.80;;
2257;SDS011;1136;51.574;7.706;2023-11-21T18:23:15;11.00;;;9.70;;
2257;SDS011;1136;51.574;7.706;2023-11-21T18:26:20;11.27;;;9.93;;
2257;SDS011;1136;51.574;7.706;2023-11-21T18:29:24;12.23;;;10.47;;
2257;SDS011;1136;51.574;7.706;2023-11-21T18:32:28;13.10;;;10.43;;
2257;SDS011;1136;51.574;7.706;2023-11-21T18:35:32;10.93;;;9.73;;
2257;SDS011;1136;51.574;7.706;2023-11-21T18:38:38;12.80;;;10.87;;
2257;SDS011;1136;51.574;7.706;2023-11-21T18:41:45;12.17;;;10.10;;
2257;SDS011;1136;51.574;7.706;2023-11-21T18:44:50;11.10;;;10.00;;
2257;SDS011;1136;51.574;7.706;2023-11-21T18:48:02;12.53;;;10.00;;
2257;SDS011;1136;51.574;7.706;2023-11-21T18:51:08;13.37;;;10.60;;
2257;SDS011;1136;51.574;7.706;2023-11-21T18:54:12;10.80;;;9.80;;
2257;SDS011;1136;51.574;7.706;2023-11-21T18:57:17;13.27;;;11.07;;